sensor_id;sensor_type;location;lat;lon;timestamp;P1;durP1;ratioP1;P2;durP2;ratioP2
38264;SDS011;24062;47.480;8.768;2023-04-09T00:01:32;17.03;;;14.90;;
38264;SDS011;24062;47.480;8.768;2023-04-09T00:04:01;17.93;;;14.17;;
38264;SDS011;24062;47.480;8.768;2023-04-09T00:06:28;18.70;;;14.87;;
38264;SDS011;24062;47.480;8.768;2023-04-09T00:08:55;18.57;;;15.70;;
38264;SDS011;24062;47.480;8.768;2023-04-09T00:11:22;15.93;;;14.23;;
38264;SDS011;24062;47.480;8.768;2023-04-09T00:13:49;15.80;;;14.20;;
38264;SDS011;24062;47.480;8.768;2023-04-09T00:16:16;16.77;;;13.70;;
38264;SDS011;24062;47.480;8.768;2023-04-09T00:18:43;16.83;;;14.50;;
38264;SDS011;24062;47.480;8.768;2023-04-09T00:21:12;16.97;;;14.50;;
38264;SDS011;24062;47.480;8.768;2023-04-09T00:23:40;16.70;;;14.87;;
38264;SDS011;24062;47.480;8.768;2023-04-09T00:26:07;15.83;;;14.23;;
38264;SDS011;24062;47.480;8.768;2023-04-09T00:28:34;14.57;;;13.17;;
38264;SDS011;24062;47.480;8.768;2023-04-09T00:31:01;17.93;;;15.23;;
38264;SDS011;24062;47.480;8.768;2023-04-09T00:33:28;18.17;;;15.30;;
38264;SDS011;24062;47.480;8.768;2023-04-09T00:35:55;18.10;;;15.53;;
38264;SDS011;24062;47.480;8.768;2023-04-09T00:38:23;19.10;;;16.50;;
38264;SDS011;24062;47.480;8.768;2023-04-09T00:40:51;19.60;;;14.57;;
38264;SDS011;24062;47.480;8.768;2023-04-09T00:43:18;21.80;;;15.90;;
38264;SDS011;24062;47.480;8.768;2023-04-09T00:45:45;19.30;;;14.80;;
38264;SDS011;24062;47.480;8.768;2023-04-09T00:48:12;16.20;;;14.43;;
38264;SDS011;24062;47.480;8.768;2023-04-09T00:50:40;16.67;;;13.83;;
38264;SDS011;24062;47.480;8.768;2023-04-09T00:53:07;17.10;;;15.23;;
38264;SDS011;24062;47.480;8.768;2023-04-09T00:55:37;20.97;;;14.87;;
38264;SDS011;24062;47.480;8.768;2023-04-09T00:58:05;18.40;;;15.60;;
38264;SDS011;24062;47.480;8.768;2023-04-09T01:00:32;20.13;;;16.53;;
38264;SDS011;24062;47.480;8.768;2023-04-09T01:02:59;17.60;;;14.80;;
38264;SDS011;24062;47.480;8.768;2023-04-09T01:05:28;16.07;;;14.07;;
38264;SDS011;24062;47.480;8.768;2023-04-09T01:08:06;18.47;;;15.00;;
38264;SDS011;24062;47.480;8.768;2023-04-09T01:10:41;17.17;;;15.27;;
38264;SDS011;24062;47.480;8.768;2023-04-09T01:13:14;20.80;;;16.30;;
38264;SDS011;24062;47.480;8.768;2023-04-09T01:15:45;19.40;;;15.50;;
38264;SDS011;24062;47.480;8.768;2023-04-09T01:18:18;20.63;;;16.20;;
38264;SDS011;24062;47.480;8.768;2023-04-09T01:20:51;21.57;;;17.10;;
38264;SDS011;24062;47.480;8.768;2023-04-09T01:23:26;18.93;;;16.00;;
38264;SDS011;24062;47.480;8.768;2023-04-09T01:26:02;20.37;;;16.43;;
38264;SDS011;24062;47.480;8.768;2023-04-09T01:28:36;20.17;;;16.80;;
38264;SDS011;24062;47.480;8.768;2023-04-09T01:31:08;20.67;;;16.80;;
38264;SDS011;24062;47.480;8.768;2023-04-09T01:33:38;17.30;;;15.50;;
38264;SDS011;24062;47.480;8.768;2023-04-09T01:36:06;19.03;;;16.23;;
38264;SDS011;24062;47.480;8.768;2023-04-09T01:38:34;17.40;;;15.50;;
38264;SDS011;24062;47.480;8.768;2023-04-09T01:41:04;18.03;;;15.10;;
38264;SDS011;24062;47.480;8.768;2023-04-09T01:43:32;19.40;;;15.40;;
38264;SDS011;24062;47.480;8.768;2023-04-09T01:46:02;19.57;;;16.27;;
38264;SDS011;24062;47.480;8.768;2023-04-09T01:48:29;18.43;;;15.77;;
38264;SDS011;24062;47.480;8.768;2023-04-09T01:50:58;17.20;;;15.13;;
38264;SDS011;24062;47.480;8.768;2023-04-09T01:53:25;21.40;;;17.03;;
38264;SDS011;24062;47.480;8.768;2023-04-09T01:55:52;23.10;;;16.73;;
38264;SDS011;24062;47.480;8.768;2023-04-09T01:58:20;19.90;;;16.40;;
38264;SDS011;24062;47.480;8.768;2023-04-09T02:00:49;18.70;;;16.20;;
38264;SDS011;24062;47.480;8.768;2023-04-09T02:03:22;19.27;;;15.93;;
38264;SDS011;24062;47.480;8.768;2023-04-09T02:05:52;18.83;;;16.40;;
38264;SDS011;24062;47.480;8.768;2023-04-09T02:08:22;19.90;;;16.03;;
38264;SDS011;24062;47.480;8.768;2023-04-09T02:10:52;20.77;;;16.53;;
38264;SDS011;24062;47.480;8.768;2023-04-09T02:13:21;18.80;;;16.43;;
38264;SDS011;24062;47.480;8.768;2023-04-09T02:15:51;22.67;;;18.43;;
38264;SDS011;24062;47.480;8.768;2023-04-09T02:18:20;20.60;;;17.00;;
38264;SDS011;24062;47.480;8.768;2023-04-09T02:20:47;24.53;;;18.17;;
38264;SDS011;24062;47.480;8.768;2023-04-09T02:23:15;23.10;;;17.53;;
38264;SDS011;24062;47.480;8.768;2023-04-09T02:25:42;24.70;;;19.33;;
38264;SDS011;24062;47.480;8.768;2023-04-09T02:28:09;24.13;;;19.60;;
38264;SDS011;24062;47.480;8.768;2023-04-09T02:30:36;23.53;;;18.87;;
38264;SDS011;24062;47.480;8.768;2023-04-09T02:33:05;25.90;;;20.90;;
38264;SDS011;24062;47.480;8.768;2023-04-09T02:35:32;20.17;;;17.27;;
38264;SDS011;24062;47.480;8.768;2023-04-09T02:37:59;26.13;;;19.60;;
38264;SDS011;24062;47.480;8.768;2023-04-09T02:40:26;23.47;;;18.87;;
38264;SDS011;24062;47.480;8.768;2023-04-09T02:42:53;22.83;;;17.83;;
38264;SDS011;24062;47.480;8.768;2023-04-09T02:45:20;26.43;;;19.03;;
38264;SDS011;24062;47.480;8.768;2023-04-09T02:47:47;28.03;;;20.00;;
38264;SDS011;24062;47.480;8.768;2023-04-09T02:50:15;23.13;;;17.80;;
38264;SDS011;24062;47.480;8.768;2023-04-09T02:52:44;22.07;;;19.03;;
38264;SDS011;24062;47.480;8.768;2023-04-09T02:55:12;19.93;;;17.23;;
38264;SDS011;24062;47.480;8.768;2023-04-09T02:57:39;25.27;;;18.60;;
38264;SDS011;24062;47.480;8.768;2023-04-09T03:00:06;26.90;;;19.20;;
38264;SDS011;24062;47.480;8.768;2023-04-09T03:02:34;21.37;;;17.87;;
38264;SDS011;24062;47.480;8.768;2023-04-09T03:05:01;29.47;;;22.10;;
38264;SDS011;24062;47.480;8.768;2023-04-09T03:07:30;24.13;;;18.83;;
38264;SDS011;24062;47.480;8.768;2023-04-09T03:09:57;23.20;;;18.60;;
38264;SDS011;24062;47.480;8.768;2023-04-09T03:12:24;24.90;;;19.63;;
38264;SDS011;24062;47.480;8.768;2023-04-09T03:14:51;20.50;;;17.23;;
38264;SDS011;24062;47.480;8.768;2023-04-09T03:17:18;32.80;;;18.70;;
38264;SDS011;24062;47.480;8.768;2023-04-09T03:19:44;23.77;;;18.53;;
38264;SDS011;24062;47.480;8.768;2023-04-09T03:22:11;21.80;;;17.00;;
38264;SDS011;24062;47.480;8.768;2023-04-09T03:24:40;21.80;;;17.90;;
38264;SDS011;24062;47.480;8.768;2023-04-09T03:27:07;21.63;;;18.43;;
38264;SDS011;24062;47.480;8.768;2023-04-09T03:29:34;21.50;;;17.83;;
38264;SDS011;24062;47.480;8.768;2023-04-09T03:32:01;24.00;;;17.90;;
38264;SDS011;24062;47.480;8.768;2023-04-09T03:34:27;19.53;;;15.93;;
38264;SDS011;24062;47.480;8.768;2023-04-09T03:36:54;21.53;;;17.63;;
38264;SDS011;24062;47.480;8.768;2023-04-09T03:39:21;22.70;;;17.13;;
38264;SDS011;24062;47.480;8.768;2023-04-09T03:41:49;20.70;;;16.67;;
38264;SDS011;24062;47.480;8.768;2023-04-09T03:44:17;20.97;;;18.10;;
38264;SDS011;24062;47.480;8.768;2023-04-09T03:46:44;19.73;;;17.40;;
38264;SDS011;24062;47.480;8.768;2023-04-09T03:49:11;19.90;;;16.83;;
38264;SDS011;24062;47.480;8.768;2023-04-09T03:51:37;22.93;;;16.63;;
38264;SDS011;24062;47.480;8.768;2023-04-09T03:54:04;21.53;;;17.90;;
38264;SDS011;24062;47.480;8.768;2023-04-09T03:56:31;25.07;;;18.33;;
38264;SDS011;24062;47.480;8.768;2023-04-09T03:59:00;22.50;;;17.53;;
38264;SDS011;24062;47.480;8.768;2023-04-09T04:01:27;24.67;;;19.10;;
38264;SDS011;24062;47.480;8.768;2023-04-09T04:03:53;20.70;;;17.03;;
38264;SDS011;24062;47.480;8.768;2023-04-09T04:06:20;19.50;;;17.00;;
38264;SDS011;24062;47.480;8.768;2023-04-09T04:08:47;22.93;;;16.60;;
38264;SDS011;24062;47.480;8.768;2023-04-09T04:11:14;23.10;;;18.20;;
38264;SDS011;24062;47.480;8.768;2023-04-09T04:13:41;24.63;;;19.60;;
38264;SDS011;24062;47.480;8.768;2023-04-09T04:16:09;23.20;;;18.73;;
38264;SDS011;24062;47.480;8.768;2023-04-09T04:18:36;23.23;;;17.83;;
38264;SDS011;24062;47.480;8.768;2023-04-09T04:21:03;22.73;;;17.70;;
38264;SDS011;24062;47.480;8.768;2023-04-09T04:23:30;20.70;;;17.63;;
38264;SDS011;24062;47.480;8.768;2023-04-09T04:25:58;21.17;;;18.53;;
38264;SDS011;24062;47.480;8.768;2023-04-09T04:28:25;22.13;;;17.40;;
38264;SDS011;24062;47.480;8.768;2023-04-09T04:30:52;21.13;;;17.10;;
38264;SDS011;24062;47.480;8.768;2023-04-09T04:33:21;22.70;;;19.20;;
38264;SDS011;24062;47.480;8.768;2023-04-09T04:35:48;22.03;;;18.97;;
38264;SDS011;24062;47.480;8.768;2023-04-09T04:38:14;26.40;;;19.00;;
38264;SDS011;24062;47.480;8.768;2023-04-09T04:40:41;24.60;;;19.87;;
38264;SDS011;24062;47.480;8.768;2023-04-09T04:43:08;26.97;;;20.87;;
38264;SDS011;24062;47.480;8.768;2023-04-09T04:45:35;27.87;;;21.10;;
38264;SDS011;24062;47.480;8.768;2023-04-09T04:48:02;27.63;;;20.63;;
38264;SDS011;24062;47.480;8.768;2023-04-09T04:50:31;27.90;;;21.50;;
38264;SDS011;24062;47.480;8.768;2023-04-09T04:52:58;27.17;;;20.80;;
38264;SDS011;24062;47.480;8.768;2023-04-09T04:55:25;28.47;;;21.30;;
38264;SDS011;24062;47.480;8.768;2023-04-09T04:57:52;28.63;;;19.37;;
38264;SDS011;24062;47.480;8.768;2023-04-09T05:00:19;24.40;;;19.17;;
38264;SDS011;24062;47.480;8.768;2023-04-09T05:02:46;28.13;;;19.70;;
38264;SDS011;24062;47.480;8.768;2023-04-09T05:05:13;28.10;;;21.40;;
38264;SDS011;24062;47.480;8.768;2023-04-09T05:07:41;27.97;;;19.07;;
38264;SDS011;24062;47.480;8.768;2023-04-09T05:10:08;25.70;;;20.57;;
38264;SDS011;24062;47.480;8.768;2023-04-09T05:12:35;21.50;;;18.17;;
38264;SDS011;24062;47.480;8.768;2023-04-09T05:15:02;24.10;;;19.60;;
38264;SDS011;24062;47.480;8.768;2023-04-09T05:17:31;22.90;;;19.57;;
38264;SDS011;24062;47.480;8.768;2023-04-09T05:19:57;21.60;;;18.10;;
38264;SDS011;24062;47.480;8.768;2023-04-09T05:22:24;23.93;;;19.57;;
38264;SDS011;24062;47.480;8.768;2023-04-09T05:24:53;21.27;;;17.53;;
38264;SDS011;24062;47.480;8.768;2023-04-09T05:27:20;20.73;;;17.53;;
38264;SDS011;24062;47.480;8.768;2023-04-09T05:29:48;21.63;;;17.60;;
38264;SDS011;24062;47.480;8.768;2023-04-09T05:32:15;19.00;;;16.97;;
38264;SDS011;24062;47.480;8.768;2023-04-09T05:34:42;19.30;;;17.10;;
38264;SDS011;24062;47.480;8.768;2023-04-09T05:37:09;22.20;;;18.17;;
38264;SDS011;24062;47.480;8.768;2023-04-09T05:39:36;23.00;;;17.37;;
38264;SDS011;24062;47.480;8.768;2023-04-09T05:42:04;21.63;;;19.10;;
38264;SDS011;24062;47.480;8.768;2023-04-09T05:44:31;23.30;;;18.53;;
38264;SDS011;24062;47.480;8.768;2023-04-09T05:46:58;20.07;;;17.17;;
38264;SDS011;24062;47.480;8.768;2023-04-09T05:49:25;22.10;;;17.73;;
38264;SDS011;24062;47.480;8.768;2023-04-09T05:51:52;20.73;;;17.37;;
38264;SDS011;24062;47.480;8.768;2023-04-09T05:54:19;21.10;;;18.17;;
38264;SDS011;24062;47.480;8.768;2023-04-09T05:56:46;20.27;;;17.80;;
38264;SDS011;24062;47.480;8.768;2023-04-09T05:59:14;22.73;;;17.90;;
38264;SDS011;24062;47.480;8.768;2023-04-09T06:01:41;20.57;;;17.43;;
38264;SDS011;24062;47.480;8.768;2023-04-09T06:04:08;19.90;;;17.47;;
38264;SDS011;24062;47.480;8.768;2023-04-09T06:06:35;24.70;;;18.60;;
38264;SDS011;24062;47.480;8.768;2023-04-09T06:09:03;20.93;;;16.87;;
38264;SDS011;24062;47.480;8.768;2023-04-09T06:11:31;20.83;;;17.27;;
38264;SDS011;24062;47.480;8.768;2023-04-09T06:13:58;19.13;;;17.03;;
38264;SDS011;24062;47.480;8.768;2023-04-09T06:16:26;20.77;;;16.80;;
38264;SDS011;24062;47.480;8.768;2023-04-09T06:18:53;23.40;;;19.00;;
38264;SDS011;24062;47.480;8.768;2023-04-09T06:21:21;26.40;;;18.47;;
38264;SDS011;24062;47.480;8.768;2023-04-09T06:23:48;22.40;;;18.10;;
38264;SDS011;24062;47.480;8.768;2023-04-09T06:26:15;20.80;;;17.80;;
38264;SDS011;24062;47.480;8.768;2023-04-09T06:28:42;21.27;;;17.30;;
38264;SDS011;24062;47.480;8.768;2023-04-09T06:31:09;19.60;;;16.50;;
38264;SDS011;24062;47.480;8.768;2023-04-09T06:33:37;19.20;;;16.30;;
38264;SDS011;24062;47.480;8.768;2023-04-09T06:36:04;21.60;;;17.93;;
38264;SDS011;24062;47.480;8.768;2023-04-09T06:38:32;21.10;;;16.50;;
38264;SDS011;24062;47.480;8.768;2023-04-09T06:40:59;21.67;;;17.40;;
38264;SDS011;24062;47.480;8.768;2023-04-09T06:43:26;19.20;;;17.10;;
38264;SDS011;24062;47.480;8.768;2023-04-09T06:45:53;18.23;;;15.93;;
38264;SDS011;24062;47.480;8.768;2023-04-09T06:48:20;20.00;;;17.17;;
38264;SDS011;24062;47.480;8.768;2023-04-09T06:50:48;20.43;;;17.70;;
38264;SDS011;24062;47.480;8.768;2023-04-09T06:53:15;19.37;;;16.43;;
38264;SDS011;24062;47.480;8.768;2023-04-09T06:55:42;18.57;;;15.90;;
38264;SDS011;24062;47.480;8.768;2023-04-09T06:58:09;18.40;;;15.53;;
38264;SDS011;24062;47.480;8.768;2023-04-09T07:00:36;21.60;;;17.80;;
38264;SDS011;24062;47.480;8.768;2023-04-09T07:03:03;20.20;;;17.40;;
38264;SDS011;24062;47.480;8.768;2023-04-09T07:05:33;19.20;;;16.17;;
38264;SDS011;24062;47.480;8.768;2023-04-09T07:08:01;17.67;;;15.80;;
38264;SDS011;24062;47.480;8.768;2023-04-09T07:10:28;87.90;;;49.87;;
38264;SDS011;24062;47.480;8.768;2023-04-09T07:12:55;16.37;;;14.70;;
38264;SDS011;24062;47.480;8.768;2023-04-09T07:15:22;21.77;;;16.17;;
38264;SDS011;24062;47.480;8.768;2023-04-09T07:17:49;18.00;;;15.77;;
38264;SDS011;24062;47.480;8.768;2023-04-09T07:20:16;19.00;;;15.77;;
38264;SDS011;24062;47.480;8.768;2023-04-09T07:22:43;17.13;;;14.80;;
38264;SDS011;24062;47.480;8.768;2023-04-09T07:25:13;19.13;;;15.93;;
38264;SDS011;24062;47.480;8.768;2023-04-09T07:27:40;16.10;;;14.40;;
38264;SDS011;24062;47.480;8.768;2023-04-09T07:30:07;17.70;;;15.80;;
38264;SDS011;24062;47.480;8.768;2023-04-09T07:32:35;17.17;;;15.20;;
38264;SDS011;24062;47.480;8.768;2023-04-09T07:35:03;17.60;;;15.67;;
38264;SDS011;24062;47.480;8.768;2023-04-09T07:37:32;15.43;;;13.80;;
38264;SDS011;24062;47.480;8.768;2023-04-09T07:39:59;18.87;;;14.80;;
38264;SDS011;24062;47.480;8.768;2023-04-09T07:42:29;16.17;;;14.57;;
38264;SDS011;24062;47.480;8.768;2023-04-09T07:44:56;16.83;;;14.20;;
38264;SDS011;24062;47.480;8.768;2023-04-09T07:47:23;16.10;;;14.10;;
38264;SDS011;24062;47.480;8.768;2023-04-09T07:49:51;16.03;;;14.20;;
38264;SDS011;24062;47.480;8.768;2023-04-09T07:52:17;15.23;;;13.83;;
38264;SDS011;24062;47.480;8.768;2023-04-09T07:54:45;17.50;;;15.50;;
38264;SDS011;24062;47.480;8.768;2023-04-09T07:57:12;15.27;;;13.77;;
38264;SDS011;24062;47.480;8.768;2023-04-09T07:59:40;15.87;;;13.67;;
38264;SDS011;24062;47.480;8.768;2023-04-09T08:02:07;17.03;;;15.17;;
38264;SDS011;24062;47.480;8.768;2023-04-09T08:04:34;18.63;;;15.90;;
38264;SDS011;24062;47.480;8.768;2023-04-09T08:07:01;16.60;;;14.80;;
38264;SDS011;24062;47.480;8.768;2023-04-09T08:09:28;17.40;;;15.57;;
38264;SDS011;24062;47.480;8.768;2023-04-09T08:11:55;15.80;;;14.27;;
38264;SDS011;24062;47.480;8.768;2023-04-09T08:14:22;16.13;;;14.43;;
38264;SDS011;24062;47.480;8.768;2023-04-09T08:16:50;15.80;;;14.20;;
38264;SDS011;24062;47.480;8.768;2023-04-09T08:19:17;16.20;;;14.50;;
38264;SDS011;24062;47.480;8.768;2023-04-09T08:21:45;14.53;;;13.13;;
38264;SDS011;24062;47.480;8.768;2023-04-09T08:24:13;18.87;;;14.70;;
38264;SDS011;24062;47.480;8.768;2023-04-09T08:26:41;14.37;;;13.00;;
38264;SDS011;24062;47.480;8.768;2023-04-09T08:29:09;15.13;;;13.60;;
38264;SDS011;24062;47.480;8.768;2023-04-09T08:31:37;15.70;;;14.00;;
38264;SDS011;24062;47.480;8.768;2023-04-09T08:34:06;14.60;;;13.10;;
38264;SDS011;24062;47.480;8.768;2023-04-09T08:36:33;14.87;;;13.37;;
38264;SDS011;24062;47.480;8.768;2023-04-09T08:39:00;14.73;;;13.20;;
38264;SDS011;24062;47.480;8.768;2023-04-09T08:41:27;15.47;;;13.87;;
38264;SDS011;24062;47.480;8.768;2023-04-09T08:43:54;15.00;;;13.47;;
38264;SDS011;24062;47.480;8.768;2023-04-09T08:46:22;15.13;;;13.63;;
38264;SDS011;24062;47.480;8.768;2023-04-09T08:48:50;14.70;;;13.20;;
38264;SDS011;24062;47.480;8.768;2023-04-09T08:51:19;15.60;;;14.10;;
38264;SDS011;24062;47.480;8.768;2023-04-09T08:53:47;14.67;;;13.13;;
38264;SDS011;24062;47.480;8.768;2023-04-09T08:56:17;15.53;;;13.93;;
38264;SDS011;24062;47.480;8.768;2023-04-09T08:58:45;15.20;;;13.60;;
38264;SDS011;24062;47.480;8.768;2023-04-09T09:01:19;15.13;;;13.67;;
38264;SDS011;24062;47.480;8.768;2023-04-09T09:03:53;16.00;;;14.30;;
38264;SDS011;24062;47.480;8.768;2023-04-09T09:06:23;15.77;;;13.97;;
38264;SDS011;24062;47.480;8.768;2023-04-09T09:09:02;13.63;;;12.30;;
38264;SDS011;24062;47.480;8.768;2023-04-09T09:11:30;15.00;;;13.50;;
38264;SDS011;24062;47.480;8.768;2023-04-09T09:13:57;16.93;;;15.03;;
38264;SDS011;24062;47.480;8.768;2023-04-09T09:16:28;14.73;;;13.23;;
38264;SDS011;24062;47.480;8.768;2023-04-09T09:18:57;16.17;;;14.47;;
38264;SDS011;24062;47.480;8.768;2023-04-09T09:21:26;14.07;;;12.67;;
38264;SDS011;24062;47.480;8.768;2023-04-09T09:23:54;15.20;;;13.63;;
38264;SDS011;24062;47.480;8.768;2023-04-09T09:26:22;15.20;;;13.60;;
38264;SDS011;24062;47.480;8.768;2023-04-09T09:28:51;15.47;;;13.87;;
38264;SDS011;24062;47.480;8.768;2023-04-09T09:31:19;14.70;;;13.30;;
38264;SDS011;24062;47.480;8.768;2023-04-09T09:33:47;14.80;;;13.30;;
38264;SDS011;24062;47.480;8.768;2023-04-09T09:36:15;18.17;;;13.03;;
38264;SDS011;24062;47.480;8.768;2023-04-09T09:38:58;14.20;;;12.80;;
38264;SDS011;24062;47.480;8.768;2023-04-09T09:41:28;16.63;;;14.30;;
38264;SDS011;24062;47.480;8.768;2023-04-09T09:43:55;15.30;;;13.70;;
38264;SDS011;24062;47.480;8.768;2023-04-09T09:46:23;15.50;;;13.93;;
38264;SDS011;24062;47.480;8.768;2023-04-09T09:48:51;15.23;;;13.57;;
38264;SDS011;24062;47.480;8.768;2023-04-09T09:51:18;13.80;;;12.53;;
38264;SDS011;24062;47.480;8.768;2023-04-09T09:53:53;13.50;;;12.20;;
38264;SDS011;24062;47.480;8.768;2023-04-09T09:56:22;14.60;;;13.10;;
38264;SDS011;24062;47.480;8.768;2023-04-09T09:59:00;13.87;;;12.50;;
38264;SDS011;24062;47.480;8.768;2023-04-09T10:01:31;13.07;;;11.83;;
38264;SDS011;24062;47.480;8.768;2023-04-09T10:03:59;13.30;;;12.10;;
38264;SDS011;24062;47.480;8.768;2023-04-09T10:06:27;13.67;;;12.27;;
38264;SDS011;24062;47.480;8.768;2023-04-09T10:08:57;14.53;;;13.13;;
38264;SDS011;24062;47.480;8.768;2023-04-09T10:11:29;14.43;;;13.03;;
38264;SDS011;24062;47.480;8.768;2023-04-09T10:13:58;13.80;;;12.40;;
38264;SDS011;24062;47.480;8.768;2023-04-09T10:16:25;13.17;;;11.87;;
38264;SDS011;24062;47.480;8.768;2023-04-09T10:18:53;12.47;;;11.27;;
38264;SDS011;24062;47.480;8.768;2023-04-09T10:21:26;12.33;;;11.13;;
38264;SDS011;24062;47.480;8.768;2023-04-09T10:23:59;11.27;;;10.27;;
38264;SDS011;24062;47.480;8.768;2023-04-09T10:26:31;12.90;;;11.70;;
38264;SDS011;24062;47.480;8.768;2023-04-09T10:29:05;12.23;;;11.13;;
38264;SDS011;24062;47.480;8.768;2023-04-09T10:31:52;12.23;;;11.03;;
38264;SDS011;24062;47.480;8.768;2023-04-09T10:34:20;13.23;;;12.03;;
38264;SDS011;24062;47.480;8.768;2023-04-09T10:36:49;12.23;;;11.00;;
38264;SDS011;24062;47.480;8.768;2023-04-09T10:39:20;11.20;;;10.17;;
38264;SDS011;24062;47.480;8.768;2023-04-09T10:41:47;10.73;;;9.83;;
38264;SDS011;24062;47.480;8.768;2023-04-09T10:44:21;10.57;;;9.67;;
38264;SDS011;24062;47.480;8.768;2023-04-09T10:46:48;10.30;;;9.40;;
38264;SDS011;24062;47.480;8.768;2023-04-09T10:49:18;10.33;;;9.30;;
38264;SDS011;24062;47.480;8.768;2023-04-09T10:51:47;10.40;;;9.50;;
38264;SDS011;24062;47.480;8.768;2023-04-09T10:54:41;9.30;;;8.50;;
38264;SDS011;24062;47.480;8.768;2023-04-09T10:57:19;10.23;;;9.33;;
38264;SDS011;24062;47.480;8.768;2023-04-09T10:59:49;10.80;;;9.80;;
38264;SDS011;24062;47.480;8.768;2023-04-09T11:05:26;8.97;;;8.17;;
38264;SDS011;24062;47.480;8.768;2023-04-09T11:07:57;10.00;;;9.10;;
38264;SDS011;24062;47.480;8.768;2023-04-09T11:10:33;10.37;;;9.57;;
38264;SDS011;24062;47.480;8.768;2023-04-09T11:13:01;10.13;;;9.27;;
38264;SDS011;24062;47.480;8.768;2023-04-09T11:15:28;9.57;;;8.77;;
38264;SDS011;24062;47.480;8.768;2023-04-09T11:17:56;9.40;;;8.50;;
38264;SDS011;24062;47.480;8.768;2023-04-09T11:20:23;8.60;;;8.00;;
38264;SDS011;24062;47.480;8.768;2023-04-09T11:22:52;7.70;;;7.10;;
38264;SDS011;24062;47.480;8.768;2023-04-09T11:25:20;7.83;;;7.23;;
38264;SDS011;24062;47.480;8.768;2023-04-09T11:27:49;6.70;;;6.20;;
38264;SDS011;24062;47.480;8.768;2023-04-09T11:30:16;6.87;;;6.37;;
38264;SDS011;24062;47.480;8.768;2023-04-09T11:32:43;8.30;;;7.70;;
38264;SDS011;24062;47.480;8.768;2023-04-09T11:35:10;8.07;;;7.47;;
38264;SDS011;24062;47.480;8.768;2023-04-09T11:37:38;7.60;;;7.10;;
38264;SDS011;24062;47.480;8.768;2023-04-09T11:40:06;9.43;;;8.70;;
38264;SDS011;24062;47.480;8.768;2023-04-09T11:42:39;8.63;;;7.93;;
38264;SDS011;24062;47.480;8.768;2023-04-09T11:45:08;8.40;;;7.80;;
38264;SDS011;24062;47.480;8.768;2023-04-09T11:47:36;8.63;;;7.17;;
38264;SDS011;24062;47.480;8.768;2023-04-09T11:50:06;8.70;;;7.90;;
38264;SDS011;24062;47.480;8.768;2023-04-09T11:52:34;8.07;;;7.27;;
38264;SDS011;24062;47.480;8.768;2023-04-09T11:55:01;7.57;;;6.90;;
38264;SDS011;24062;47.480;8.768;2023-04-09T11:57:35;8.23;;;7.53;;
38264;SDS011;24062;47.480;8.768;2023-04-09T12:00:09;7.87;;;7.07;;
38264;SDS011;24062;47.480;8.768;2023-04-09T12:02:40;6.70;;;6.20;;
38264;SDS011;24062;47.480;8.768;2023-04-09T12:05:09;5.93;;;5.53;;
38264;SDS011;24062;47.480;8.768;2023-04-09T12:07:38;6.80;;;6.13;;
38264;SDS011;24062;47.480;8.768;2023-04-09T12:10:06;7.23;;;6.63;;
38264;SDS011;24062;47.480;8.768;2023-04-09T12:12:41;6.87;;;6.37;;
38264;SDS011;24062;47.480;8.768;2023-04-09T12:15:17;7.10;;;6.53;;
38264;SDS011;24062;47.480;8.768;2023-04-09T12:17:46;6.77;;;6.27;;
38264;SDS011;24062;47.480;8.768;2023-04-09T12:20:24;5.93;;;5.43;;
38264;SDS011;24062;47.480;8.768;2023-04-09T12:22:59;6.40;;;5.80;;
38264;SDS011;24062;47.480;8.768;2023-04-09T12:25:27;5.17;;;4.80;;
38264;SDS011;24062;47.480;8.768;2023-04-09T12:27:55;6.33;;;5.87;;
38264;SDS011;24062;47.480;8.768;2023-04-09T12:30:24;5.77;;;5.37;;
38264;SDS011;24062;47.480;8.768;2023-04-09T12:32:51;5.60;;;5.10;;
38264;SDS011;24062;47.480;8.768;2023-04-09T12:35:19;5.23;;;4.83;;
38264;SDS011;24062;47.480;8.768;2023-04-09T12:37:46;5.13;;;4.73;;
38264;SDS011;24062;47.480;8.768;2023-04-09T12:40:13;5.57;;;5.10;;
38264;SDS011;24062;47.480;8.768;2023-04-09T12:42:41;5.63;;;5.23;;
38264;SDS011;24062;47.480;8.768;2023-04-09T12:45:09;4.70;;;4.40;;
38264;SDS011;24062;47.480;8.768;2023-04-09T12:47:41;4.97;;;4.57;;
38264;SDS011;24062;47.480;8.768;2023-04-09T12:50:08;4.67;;;4.27;;
38264;SDS011;24062;47.480;8.768;2023-04-09T12:52:36;3.63;;;3.33;;
38264;SDS011;24062;47.480;8.768;2023-04-09T12:55:03;3.93;;;3.50;;
38264;SDS011;24062;47.480;8.768;2023-04-09T12:57:31;3.60;;;3.30;;
38264;SDS011;24062;47.480;8.768;2023-04-09T12:59:59;5.07;;;4.67;;
38264;SDS011;24062;47.480;8.768;2023-04-09T13:02:26;4.10;;;3.80;;
38264;SDS011;24062;47.480;8.768;2023-04-09T13:04:55;3.00;;;2.80;;
38264;SDS011;24062;47.480;8.768;2023-04-09T13:07:22;3.50;;;3.20;;
38264;SDS011;24062;47.480;8.768;2023-04-09T13:09:50;2.80;;;2.60;;
38264;SDS011;24062;47.480;8.768;2023-04-09T13:12:17;2.80;;;2.60;;
38264;SDS011;24062;47.480;8.768;2023-04-09T13:14:45;3.10;;;2.80;;
38264;SDS011;24062;47.480;8.768;2023-04-09T13:17:13;4.30;;;4.00;;
38264;SDS011;24062;47.480;8.768;2023-04-09T13:19:40;3.43;;;3.13;;
38264;SDS011;24062;47.480;8.768;2023-04-09T13:22:08;3.33;;;3.03;;
38264;SDS011;24062;47.480;8.768;2023-04-09T13:24:35;3.17;;;2.90;;
38264;SDS011;24062;47.480;8.768;2023-04-09T13:27:03;2.97;;;2.67;;
38264;SDS011;24062;47.480;8.768;2023-04-09T13:29:33;2.33;;;2.13;;
38264;SDS011;24062;47.480;8.768;2023-04-09T13:32:00;2.40;;;2.20;;
38264;SDS011;24062;47.480;8.768;2023-04-09T13:34:31;3.33;;;3.03;;
38264;SDS011;24062;47.480;8.768;2023-04-09T13:36:58;2.63;;;2.43;;
38264;SDS011;24062;47.480;8.768;2023-04-09T13:39:27;3.53;;;3.23;;
38264;SDS011;24062;47.480;8.768;2023-04-09T13:41:54;4.00;;;3.70;;
38264;SDS011;24062;47.480;8.768;2023-04-09T13:44:21;3.43;;;3.20;;
38264;SDS011;24062;47.480;8.768;2023-04-09T13:46:48;3.10;;;2.77;;
38264;SDS011;24062;47.480;8.768;2023-04-09T13:49:15;2.70;;;2.50;;
38264;SDS011;24062;47.480;8.768;2023-04-09T13:51:42;3.23;;;3.00;;
38264;SDS011;24062;47.480;8.768;2023-04-09T13:54:09;3.30;;;3.00;;
38264;SDS011;24062;47.480;8.768;2023-04-09T13:56:38;3.33;;;3.03;;
38264;SDS011;24062;47.480;8.768;2023-04-09T13:59:05;3.33;;;3.03;;
38264;SDS011;24062;47.480;8.768;2023-04-09T14:01:32;3.57;;;3.27;;
38264;SDS011;24062;47.480;8.768;2023-04-09T14:03:59;3.45;;;3.15;;
38264;SDS011;24062;47.480;8.768;2023-04-09T14:06:26;3.10;;;2.90;;
38264;SDS011;24062;47.480;8.768;2023-04-09T14:08:54;3.17;;;2.97;;
38264;SDS011;24062;47.480;8.768;2023-04-09T14:11:21;3.25;;;3.05;;
38264;SDS011;24062;47.480;8.768;2023-04-09T14:13:49;2.78;;;2.58;;
38264;SDS011;24062;47.480;8.768;2023-04-09T14:16:16;2.80;;;2.60;;
38264;SDS011;24062;47.480;8.768;2023-04-09T14:18:43;3.38;;;3.13;;
38264;SDS011;24062;47.480;8.768;2023-04-09T14:21:10;3.20;;;2.95;;
38264;SDS011;24062;47.480;8.768;2023-04-09T14:23:37;3.40;;;3.20;;
38264;SDS011;24062;47.480;8.768;2023-04-09T14:26:05;3.05;;;2.85;;
38264;SDS011;24062;47.480;8.768;2023-04-09T14:28:32;2.67;;;2.47;;
38264;SDS011;24062;47.480;8.768;2023-04-09T14:31:00;3.30;;;3.08;;
38264;SDS011;24062;47.480;8.768;2023-04-09T14:33:27;2.80;;;2.60;;
38264;SDS011;24062;47.480;8.768;2023-04-09T14:35:55;4.00;;;2.58;;
38264;SDS011;24062;47.480;8.768;2023-04-09T14:38:22;2.95;;;2.75;;